sensor_id;sensor_type;location;lat;lon;timestamp;P1;durP1;ratioP1;P2;durP2;ratioP2
25549;SDS011;13444;50.562;7.262;2022-12-08T00:01:14;13.40;;;9.20;;
25549;SDS011;13444;50.562;7.262;2022-12-08T00:03:42;16.17;;;9.50;;
25549;SDS011;13444;50.562;7.262;2022-12-08T00:06:30;16.57;;;10.67;;
25549;SDS011;13444;50.562;7.262;2022-12-08T00:09:25;14.67;;;9.00;;
25549;SDS011;13444;50.562;7.262;2022-12-08T00:12:00;14.43;;;9.23;;
25549;SDS011;13444;50.562;7.262;2022-12-08T00:14:34;10.87;;;8.50;;
25549;SDS011;13444;50.562;7.262;2022-12-08T00:17:02;18.33;;;10.27;;
25549;SDS011;13444;50.562;7.262;2022-12-08T00:19:28;13.10;;;8.63;;
25549;SDS011;13444;50.562;7.262;2022-12-08T00:21:55;14.17;;;9.83;;
25549;SDS011;13444;50.562;7.262;2022-12-08T00:24:21;13.80;;;8.90;;
25549;SDS011;13444;50.562;7.262;2022-12-08T00:26:48;14.30;;;9.03;;
25549;SDS011;13444;50.562;7.262;2022-12-08T00:29:14;14.53;;;9.70;;
25549;SDS011;13444;50.562;7.262;2022-12-08T00:31:40;13.90;;;8.83;;
25549;SDS011;13444;50.562;7.262;2022-12-08T00:34:06;12.60;;;8.43;;
25549;SDS011;13444;50.562;7.262;2022-12-08T00:36:32;13.33;;;9.23;;
25549;SDS011;13444;50.562;7.262;2022-12-08T00:38:57;13.80;;;9.10;;
25549;SDS011;13444;50.562;7.262;2022-12-08T00:41:24;13.30;;;8.53;;
25549;SDS011;13444;50.562;7.262;2022-12-08T00:44:10;14.87;;;8.67;;
25549;SDS011;13444;50.562;7.262;2022-12-08T00:46:37;16.17;;;9.00;;
25549;SDS011;13444;50.562;7.262;2022-12-08T00:49:03;13.40;;;8.57;;
25549;SDS011;13444;50.562;7.262;2022-12-08T00:51:29;13.27;;;8.83;;
25549;SDS011;13444;50.562;7.262;2022-12-08T00:53:55;13.67;;;8.20;;
25549;SDS011;13444;50.562;7.262;2022-12-08T00:56:21;16.63;;;9.27;;
25549;SDS011;13444;50.562;7.262;2022-12-08T00:58:46;14.67;;;8.53;;
25549;SDS011;13444;50.562;7.262;2022-12-08T01:01:12;11.77;;;8.20;;
25549;SDS011;13444;50.562;7.262;2022-12-08T01:03:38;14.70;;;8.53;;
25549;SDS011;13444;50.562;7.262;2022-12-08T01:06:04;13.67;;;8.10;;
25549;SDS011;13444;50.562;7.262;2022-12-08T01:08:31;14.13;;;8.67;;
25549;SDS011;13444;50.562;7.262;2022-12-08T01:11:02;11.97;;;7.93;;
25549;SDS011;13444;50.562;7.262;2022-12-08T01:13:28;11.07;;;7.83;;
25549;SDS011;13444;50.562;7.262;2022-12-08T01:15:54;14.00;;;8.20;;
25549;SDS011;13444;50.562;7.262;2022-12-08T01:18:19;11.13;;;7.43;;
25549;SDS011;13444;50.562;7.262;2022-12-08T01:20:45;11.97;;;7.77;;
25549;SDS011;13444;50.562;7.262;2022-12-08T01:23:10;10.47;;;7.87;;
25549;SDS011;13444;50.562;7.262;2022-12-08T01:25:36;13.97;;;8.43;;
25549;SDS011;13444;50.562;7.262;2022-12-08T01:28:01;11.57;;;7.30;;
25549;SDS011;13444;50.562;7.262;2022-12-08T01:30:27;13.03;;;7.30;;
25549;SDS011;13444;50.562;7.262;2022-12-08T01:32:53;11.40;;;7.20;;
25549;SDS011;13444;50.562;7.262;2022-12-08T01:35:19;10.13;;;7.30;;
25549;SDS011;13444;50.562;7.262;2022-12-08T01:37:44;11.87;;;7.27;;
25549;SDS011;13444;50.562;7.262;2022-12-08T01:40:10;12.20;;;7.53;;
25549;SDS011;13444;50.562;7.262;2022-12-08T01:42:35;11.70;;;6.93;;
25549;SDS011;13444;50.562;7.262;2022-12-08T01:45:44;10.87;;;7.10;;
25549;SDS011;13444;50.562;7.262;2022-12-08T01:47:54;10.90;;;7.00;;
25549;SDS011;13444;50.562;7.262;2022-12-08T01:50:22;12.53;;;7.00;;
25549;SDS011;13444;50.562;7.262;2022-12-08T01:52:49;13.70;;;8.00;;
25549;SDS011;13444;50.562;7.262;2022-12-08T01:55:22;9.67;;;6.73;;
25549;SDS011;13444;50.562;7.262;2022-12-08T01:58:24;11.10;;;6.83;;
25549;SDS011;13444;50.562;7.262;2022-12-08T02:00:52;8.47;;;6.20;;
25549;SDS011;13444;50.562;7.262;2022-12-08T02:03:33;9.20;;;6.50;;
25549;SDS011;13444;50.562;7.262;2022-12-08T02:06:03;11.17;;;7.23;;
25549;SDS011;13444;50.562;7.262;2022-12-08T02:08:29;10.03;;;7.37;;
25549;SDS011;13444;50.562;7.262;2022-12-08T02:10:56;9.37;;;6.60;;
25549;SDS011;13444;50.562;7.262;2022-12-08T02:13:22;11.20;;;6.87;;
25549;SDS011;13444;50.562;7.262;2022-12-08T02:18:27;10.63;;;6.67;;
25549;SDS011;13444;50.562;7.262;2022-12-08T02:24:24;12.47;;;6.73;;
25549;SDS011;13444;50.562;7.262;2022-12-08T02:38:20;9.50;;;6.37;;
25549;SDS011;13444;50.562;7.262;2022-12-08T02:43:38;11.37;;;5.97;;
25549;SDS011;13444;50.562;7.262;2022-12-08T02:46:09;11.63;;;7.00;;
25549;SDS011;13444;50.562;7.262;2022-12-08T02:48:40;9.40;;;6.67;;
25549;SDS011;13444;50.562;7.262;2022-12-08T02:51:06;6.73;;;5.77;;
25549;SDS011;13444;50.562;7.262;2022-12-08T02:53:31;12.37;;;6.57;;
25549;SDS011;13444;50.562;7.262;2022-12-08T02:59:00;9.33;;;6.53;;
25549;SDS011;13444;50.562;7.262;2022-12-08T03:01:37;9.07;;;6.50;;
25549;SDS011;13444;50.562;7.262;2022-12-08T03:04:24;9.60;;;6.00;;
25549;SDS011;13444;50.562;7.262;2022-12-08T03:10:12;9.33;;;5.67;;
25549;SDS011;13444;50.562;7.262;2022-12-08T03:12:47;8.77;;;6.17;;
25549;SDS011;13444;50.562;7.262;2022-12-08T03:15:18;9.83;;;6.13;;
25549;SDS011;13444;50.562;7.262;2022-12-08T03:17:46;10.40;;;6.53;;
25549;SDS011;13444;50.562;7.262;2022-12-08T03:20:17;10.60;;;6.33;;
25549;SDS011;13444;50.562;7.262;2022-12-08T03:22:45;10.43;;;6.00;;
25549;SDS011;13444;50.562;7.262;2022-12-08T03:25:12;9.53;;;5.87;;
25549;SDS011;13444;50.562;7.262;2022-12-08T03:27:39;8.53;;;5.87;;
25549;SDS011;13444;50.562;7.262;2022-12-08T03:30:05;8.33;;;5.63;;
25549;SDS011;13444;50.562;7.262;2022-12-08T03:35:53;9.27;;;6.20;;
25549;SDS011;13444;50.562;7.262;2022-12-08T03:38:19;9.90;;;6.10;;
25549;SDS011;13444;50.562;7.262;2022-12-08T03:40:46;6.53;;;5.00;;
25549;SDS011;13444;50.562;7.262;2022-12-08T03:43:34;9.60;;;5.73;;
25549;SDS011;13444;50.562;7.262;2022-12-08T03:46:00;11.93;;;6.67;;
25549;SDS011;13444;50.562;7.262;2022-12-08T03:48:26;14.33;;;5.80;;
25549;SDS011;13444;50.562;7.262;2022-12-08T03:50:51;10.37;;;5.97;;
25549;SDS011;13444;50.562;7.262;2022-12-08T03:53:17;7.10;;;5.20;;
25549;SDS011;13444;50.562;7.262;2022-12-08T03:55:42;8.17;;;5.40;;
25549;SDS011;13444;50.562;7.262;2022-12-08T03:58:08;7.97;;;5.50;;
25549;SDS011;13444;50.562;7.262;2022-12-08T04:00:33;6.97;;;5.03;;
25549;SDS011;13444;50.562;7.262;2022-12-08T04:02:59;7.17;;;4.97;;
25549;SDS011;13444;50.562;7.262;2022-12-08T04:05:24;6.50;;;4.80;;
25549;SDS011;13444;50.562;7.262;2022-12-08T04:07:50;7.77;;;5.30;;
25549;SDS011;13444;50.562;7.262;2022-12-08T04:10:15;12.57;;;5.60;;
25549;SDS011;13444;50.562;7.262;2022-12-08T04:12:41;7.70;;;5.83;;
25549;SDS011;13444;50.562;7.262;2022-12-08T04:15:06;8.07;;;5.23;;
25549;SDS011;13444;50.562;7.262;2022-12-08T04:17:32;9.30;;;5.40;;
25549;SDS011;13444;50.562;7.262;2022-12-08T04:19:58;8.03;;;5.60;;
25549;SDS011;13444;50.562;7.262;2022-12-08T04:22:23;9.30;;;5.50;;
25549;SDS011;13444;50.562;7.262;2022-12-08T04:24:49;11.43;;;5.37;;
25549;SDS011;13444;50.562;7.262;2022-12-08T04:27:14;6.73;;;5.10;;
25549;SDS011;13444;50.562;7.262;2022-12-08T04:29:40;7.37;;;5.57;;
25549;SDS011;13444;50.562;7.262;2022-12-08T04:32:05;8.87;;;5.73;;
25549;SDS011;13444;50.562;7.262;2022-12-08T04:34:32;9.67;;;5.90;;
25549;SDS011;13444;50.562;7.262;2022-12-08T04:36:57;7.47;;;5.10;;
25549;SDS011;13444;50.562;7.262;2022-12-08T04:39:23;8.37;;;5.57;;
25549;SDS011;13444;50.562;7.262;2022-12-08T04:41:48;11.07;;;5.80;;
25549;SDS011;13444;50.562;7.262;2022-12-08T04:44:14;7.87;;;5.17;;
25549;SDS011;13444;50.562;7.262;2022-12-08T04:46:40;8.63;;;5.93;;
25549;SDS011;13444;50.562;7.262;2022-12-08T04:49:05;8.53;;;5.10;;
25549;SDS011;13444;50.562;7.262;2022-12-08T04:51:30;7.73;;;5.30;;
25549;SDS011;13444;50.562;7.262;2022-12-08T04:53:56;10.53;;;5.07;;
25549;SDS011;13444;50.562;7.262;2022-12-08T04:56:22;8.57;;;5.60;;
25549;SDS011;13444;50.562;7.262;2022-12-08T04:58:47;9.17;;;5.07;;
25549;SDS011;13444;50.562;7.262;2022-12-08T05:01:13;9.73;;;5.63;;
25549;SDS011;13444;50.562;7.262;2022-12-08T05:03:38;8.27;;;5.67;;
25549;SDS011;13444;50.562;7.262;2022-12-08T05:06:04;9.60;;;5.27;;
25549;SDS011;13444;50.562;7.262;2022-12-08T05:08:30;8.70;;;4.90;;
25549;SDS011;13444;50.562;7.262;2022-12-08T05:11:00;11.20;;;5.63;;
25549;SDS011;13444;50.562;7.262;2022-12-08T05:13:27;6.60;;;5.03;;
25549;SDS011;13444;50.562;7.262;2022-12-08T05:15:53;9.60;;;5.53;;
25549;SDS011;13444;50.562;7.262;2022-12-08T05:18:18;9.00;;;5.27;;
25549;SDS011;13444;50.562;7.262;2022-12-08T05:20:43;9.23;;;5.03;;
25549;SDS011;13444;50.562;7.262;2022-12-08T05:23:09;9.40;;;6.00;;
25549;SDS011;13444;50.562;7.262;2022-12-08T05:25:34;7.73;;;5.50;;
25549;SDS011;13444;50.562;7.262;2022-12-08T05:28:00;7.83;;;5.10;;
25549;SDS011;13444;50.562;7.262;2022-12-08T05:30:25;8.67;;;5.20;;
25549;SDS011;13444;50.562;7.262;2022-12-08T05:32:51;8.17;;;5.50;;
25549;SDS011;13444;50.562;7.262;2022-12-08T05:35:16;10.80;;;5.50;;
25549;SDS011;13444;50.562;7.262;2022-12-08T05:37:42;5.90;;;4.87;;
25549;SDS011;13444;50.562;7.262;2022-12-08T05:40:08;8.20;;;5.13;;
25549;SDS011;13444;50.562;7.262;2022-12-08T05:42:33;8.77;;;4.93;;
25549;SDS011;13444;50.562;7.262;2022-12-08T05:44:59;9.03;;;5.23;;
25549;SDS011;13444;50.562;7.262;2022-12-08T05:47:25;9.63;;;5.33;;
25549;SDS011;13444;50.562;7.262;2022-12-08T05:49:50;7.20;;;5.80;;
25549;SDS011;13444;50.562;7.262;2022-12-08T05:52:16;8.40;;;6.60;;
25549;SDS011;13444;50.562;7.262;2022-12-08T05:54:41;9.63;;;6.83;;
25549;SDS011;13444;50.562;7.262;2022-12-08T05:57:07;8.10;;;6.20;;
25549;SDS011;13444;50.562;7.262;2022-12-08T05:59:33;6.27;;;5.17;;
25549;SDS011;13444;50.562;7.262;2022-12-08T06:01:58;7.50;;;5.43;;
25549;SDS011;13444;50.562;7.262;2022-12-08T06:04:24;7.23;;;5.03;;
25549;SDS011;13444;50.562;7.262;2022-12-08T06:06:49;8.73;;;5.90;;
25549;SDS011;13444;50.562;7.262;2022-12-08T06:09:15;7.70;;;5.40;;
25549;SDS011;13444;50.562;7.262;2022-12-08T06:11:41;9.13;;;5.50;;
25549;SDS011;13444;50.562;7.262;2022-12-08T06:14:09;9.73;;;5.70;;
25549;SDS011;13444;50.562;7.262;2022-12-08T06:16:36;8.43;;;5.60;;
25549;SDS011;13444;50.562;7.262;2022-12-08T06:19:02;9.10;;;5.47;;
25549;SDS011;13444;50.562;7.262;2022-12-08T06:21:27;6.80;;;5.23;;
25549;SDS011;13444;50.562;7.262;2022-12-08T06:23:53;8.00;;;5.13;;
25549;SDS011;13444;50.562;7.262;2022-12-08T06:26:19;10.40;;;6.50;;
25549;SDS011;13444;50.562;7.262;2022-12-08T06:28:45;11.03;;;6.07;;
25549;SDS011;13444;50.562;7.262;2022-12-08T06:31:18;11.20;;;5.63;;
25549;SDS011;13444;50.562;7.262;2022-12-08T06:33:46;10.77;;;6.70;;
25549;SDS011;13444;50.562;7.262;2022-12-08T06:36:13;12.73;;;5.97;;
25549;SDS011;13444;50.562;7.262;2022-12-08T06:38:40;10.37;;;6.30;;
25549;SDS011;13444;50.562;7.262;2022-12-08T06:41:06;12.37;;;6.23;;
25549;SDS011;13444;50.562;7.262;2022-12-08T06:43:32;10.70;;;5.93;;
25549;SDS011;13444;50.562;7.262;2022-12-08T06:45:57;8.47;;;6.20;;
25549;SDS011;13444;50.562;7.262;2022-12-08T06:48:24;10.63;;;6.10;;
25549;SDS011;13444;50.562;7.262;2022-12-08T06:50:49;9.30;;;4.93;;
25549;SDS011;13444;50.562;7.262;2022-12-08T06:53:15;7.87;;;5.60;;
25549;SDS011;13444;50.562;7.262;2022-12-08T06:55:42;12.00;;;6.20;;
25549;SDS011;13444;50.562;7.262;2022-12-08T06:58:11;8.43;;;5.80;;
25549;SDS011;13444;50.562;7.262;2022-12-08T07:00:38;8.37;;;5.87;;
25549;SDS011;13444;50.562;7.262;2022-12-08T07:03:05;7.87;;;5.97;;
25549;SDS011;13444;50.562;7.262;2022-12-08T07:05:33;9.63;;;6.23;;
25549;SDS011;13444;50.562;7.262;2022-12-08T07:07:59;9.87;;;6.40;;
25549;SDS011;13444;50.562;7.262;2022-12-08T07:10:26;9.43;;;6.37;;
25549;SDS011;13444;50.562;7.262;2022-12-08T07:12:52;9.60;;;6.60;;
25549;SDS011;13444;50.562;7.262;2022-12-08T07:15:19;11.00;;;7.07;;
25549;SDS011;13444;50.562;7.262;2022-12-08T07:17:46;11.20;;;7.60;;
25549;SDS011;13444;50.562;7.262;2022-12-08T07:20:12;12.73;;;8.27;;
25549;SDS011;13444;50.562;7.262;2022-12-08T07:22:38;10.03;;;6.93;;
25549;SDS011;13444;50.562;7.262;2022-12-08T07:25:04;9.37;;;6.40;;
25549;SDS011;13444;50.562;7.262;2022-12-08T07:27:29;11.40;;;7.20;;
25549;SDS011;13444;50.562;7.262;2022-12-08T07:29:55;15.80;;;8.27;;
25549;SDS011;13444;50.562;7.262;2022-12-08T07:32:21;12.63;;;8.10;;
25549;SDS011;13444;50.562;7.262;2022-12-08T07:34:46;12.33;;;8.23;;
25549;SDS011;13444;50.562;7.262;2022-12-08T07:37:12;17.47;;;9.60;;
25549;SDS011;13444;50.562;7.262;2022-12-08T07:39:38;15.00;;;9.00;;
25549;SDS011;13444;50.562;7.262;2022-12-08T07:42:06;13.40;;;8.37;;
25549;SDS011;13444;50.562;7.262;2022-12-08T07:44:31;13.10;;;9.20;;
25549;SDS011;13444;50.562;7.262;2022-12-08T07:46:57;21.97;;;13.93;;
25549;SDS011;13444;50.562;7.262;2022-12-08T07:49:22;19.40;;;10.87;;
25549;SDS011;13444;50.562;7.262;2022-12-08T07:51:48;27.60;;;19.37;;
25549;SDS011;13444;50.562;7.262;2022-12-08T07:54:13;23.90;;;17.63;;
25549;SDS011;13444;50.562;7.262;2022-12-08T07:56:39;16.50;;;10.67;;
25549;SDS011;13444;50.562;7.262;2022-12-08T07:59:04;11.83;;;6.93;;
25549;SDS011;13444;50.562;7.262;2022-12-08T08:01:31;14.77;;;6.70;;
25549;SDS011;13444;50.562;7.262;2022-12-08T08:03:59;9.10;;;6.63;;
25549;SDS011;13444;50.562;7.262;2022-12-08T08:06:28;10.33;;;6.50;;
25549;SDS011;13444;50.562;7.262;2022-12-08T08:08:54;7.30;;;5.83;;
25549;SDS011;13444;50.562;7.262;2022-12-08T08:11:20;8.13;;;6.33;;
25549;SDS011;13444;50.562;7.262;2022-12-08T08:13:45;7.57;;;6.10;;
25549;SDS011;13444;50.562;7.262;2022-12-08T08:16:11;7.40;;;5.43;;
25549;SDS011;13444;50.562;7.262;2022-12-08T08:18:37;11.17;;;6.60;;
25549;SDS011;13444;50.562;7.262;2022-12-08T08:21:03;10.13;;;6.13;;
25549;SDS011;13444;50.562;7.262;2022-12-08T08:23:29;14.23;;;6.73;;
25549;SDS011;13444;50.562;7.262;2022-12-08T08:25:57;10.07;;;6.73;;
25549;SDS011;13444;50.562;7.262;2022-12-08T08:28:27;10.83;;;7.20;;
25549;SDS011;13444;50.562;7.262;2022-12-08T08:30:53;15.83;;;7.67;;
25549;SDS011;13444;50.562;7.262;2022-12-08T08:33:19;12.33;;;6.90;;
25549;SDS011;13444;50.562;7.262;2022-12-08T08:35:45;10.03;;;7.13;;
25549;SDS011;13444;50.562;7.262;2022-12-08T08:38:11;8.90;;;6.53;;
25549;SDS011;13444;50.562;7.262;2022-12-08T08:40:36;8.53;;;6.40;;
25549;SDS011;13444;50.562;7.262;2022-12-08T08:43:02;9.47;;;6.80;;
25549;SDS011;13444;50.562;7.262;2022-12-08T08:45:29;14.03;;;7.33;;
25549;SDS011;13444;50.562;7.262;2022-12-08T08:47:55;12.23;;;7.20;;
25549;SDS011;13444;50.562;7.262;2022-12-08T08:50:21;11.93;;;6.73;;
25549;SDS011;13444;50.562;7.262;2022-12-08T08:52:46;10.60;;;7.23;;
25549;SDS011;13444;50.562;7.262;2022-12-08T08:55:12;10.83;;;7.03;;
25549;SDS011;13444;50.562;7.262;2022-12-08T08:57:37;11.40;;;7.10;;
25549;SDS011;13444;50.562;7.262;2022-12-08T09:00:03;11.03;;;7.47;;
25549;SDS011;13444;50.562;7.262;2022-12-08T09:02:29;12.97;;;7.63;;
25549;SDS011;13444;50.562;7.262;2022-12-08T09:04:55;12.87;;;8.17;;
25549;SDS011;13444;50.562;7.262;2022-12-08T09:07:21;11.67;;;7.80;;
25549;SDS011;13444;50.562;7.262;2022-12-08T09:09:46;14.50;;;8.40;;
25549;SDS011;13444;50.562;7.262;2022-12-08T09:12:12;11.53;;;7.90;;
25549;SDS011;13444;50.562;7.262;2022-12-08T09:14:38;12.27;;;7.87;;
25549;SDS011;13444;50.562;7.262;2022-12-08T09:17:04;12.53;;;7.77;;
25549;SDS011;13444;50.562;7.262;2022-12-08T09:19:30;10.43;;;7.30;;
25549;SDS011;13444;50.562;7.262;2022-12-08T09:21:55;16.70;;;8.67;;
25549;SDS011;13444;50.562;7.262;2022-12-08T09:24:21;15.23;;;9.43;;
25549;SDS011;13444;50.562;7.262;2022-12-08T09:26:47;12.27;;;8.57;;
25549;SDS011;13444;50.562;7.262;2022-12-08T09:29:13;13.20;;;8.53;;
25549;SDS011;13444;50.562;7.262;2022-12-08T09:31:39;10.17;;;7.03;;
25549;SDS011;13444;50.562;7.262;2022-12-08T09:34:05;11.93;;;6.57;;
25549;SDS011;13444;50.562;7.262;2022-12-08T09:36:31;9.77;;;6.73;;
25549;SDS011;13444;50.562;7.262;2022-12-08T09:38:57;8.67;;;6.30;;
25549;SDS011;13444;50.562;7.262;2022-12-08T09:41:26;11.93;;;7.90;;
25549;SDS011;13444;50.562;7.262;2022-12-08T09:44:17;10.60;;;7.13;;
25549;SDS011;13444;50.562;7.262;2022-12-08T09:47:41;12.90;;;7.87;;
25549;SDS011;13444;50.562;7.262;2022-12-08T09:50:06;16.40;;;8.30;;
25549;SDS011;13444;50.562;7.262;2022-12-08T09:53:11;14.00;;;9.03;;
25549;SDS011;13444;50.562;7.262;2022-12-08T09:55:59;35.70;;;19.50;;
25549;SDS011;13444;50.562;7.262;2022-12-08T09:58:52;19.13;;;12.10;;
25549;SDS011;13444;50.562;7.262;2022-12-08T10:01:38;12.47;;;7.37;;
25549;SDS011;13444;50.562;7.262;2022-12-08T10:04:24;10.57;;;7.80;;
25549;SDS011;13444;50.562;7.262;2022-12-08T10:07:01;12.87;;;7.83;;
25549;SDS011;13444;50.562;7.262;2022-12-08T10:14:43;15.43;;;8.33;;
25549;SDS011;13444;50.562;7.262;2022-12-08T10:17:30;10.03;;;6.90;;
25549;SDS011;13444;50.562;7.262;2022-12-08T10:20:05;15.90;;;8.73;;
25549;SDS011;13444;50.562;7.262;2022-12-08T10:22:36;14.93;;;9.07;;
25549;SDS011;13444;50.562;7.262;2022-12-08T10:27:33;10.07;;;6.57;;
25549;SDS011;13444;50.562;7.262;2022-12-08T10:30:00;10.30;;;6.20;;
25549;SDS011;13444;50.562;7.262;2022-12-08T10:32:28;11.50;;;6.60;;
25549;SDS011;13444;50.562;7.262;2022-12-08T10:35:00;10.90;;;6.03;;
25549;SDS011;13444;50.562;7.262;2022-12-08T10:37:31;9.70;;;5.97;;
25549;SDS011;13444;50.562;7.262;2022-12-08T10:39:57;11.73;;;6.50;;
25549;SDS011;13444;50.562;7.262;2022-12-08T10:42:47;13.37;;;6.13;;
25549;SDS011;13444;50.562;7.262;2022-12-08T10:47:46;11.40;;;6.13;;
25549;SDS011;13444;50.562;7.262;2022-12-08T10:50:40;11.13;;;5.73;;
25549;SDS011;13444;50.562;7.262;2022-12-08T10:55:49;8.53;;;5.00;;
25549;SDS011;13444;50.562;7.262;2022-12-08T11:00:57;7.93;;;5.07;;
25549;SDS011;13444;50.562;7.262;2022-12-08T11:03:48;8.37;;;5.30;;
25549;SDS011;13444;50.562;7.262;2022-12-08T11:08:47;10.40;;;4.30;;
25549;SDS011;13444;50.562;7.262;2022-12-08T11:11:14;5.83;;;4.70;;
25549;SDS011;13444;50.562;7.262;2022-12-08T11:13:41;8.43;;;4.47;;
25549;SDS011;13444;50.562;7.262;2022-12-08T11:16:07;8.20;;;4.70;;
25549;SDS011;13444;50.562;7.262;2022-12-08T11:18:40;7.23;;;4.53;;
25549;SDS011;13444;50.562;7.262;2022-12-08T11:21:13;6.80;;;4.60;;
25549;SDS011;13444;50.562;7.262;2022-12-08T11:23:46;8.67;;;4.90;;
25549;SDS011;13444;50.562;7.262;2022-12-08T11:26:27;6.17;;;4.47;;
25549;SDS011;13444;50.562;7.262;2022-12-08T11:28:56;6.43;;;3.90;;
25549;SDS011;13444;50.562;7.262;2022-12-08T11:31:29;9.40;;;4.97;;
25549;SDS011;13444;50.562;7.262;2022-12-08T11:33:58;6.90;;;4.07;;
25549;SDS011;13444;50.562;7.262;2022-12-08T11:36:26;6.97;;;4.30;;
25549;SDS011;13444;50.562;7.262;2022-12-08T11:38:56;7.20;;;3.83;;
25549;SDS011;13444;50.562;7.262;2022-12-08T11:41:31;7.43;;;3.67;;
25549;SDS011;13444;50.562;7.262;2022-12-08T11:44:08;4.57;;;3.47;;
25549;SDS011;13444;50.562;7.262;2022-12-08T11:46:49;6.80;;;4.17;;
25549;SDS011;13444;50.562;7.262;2022-12-08T11:49:23;5.90;;;4.20;;
25549;SDS011;13444;50.562;7.262;2022-12-08T11:51:58;5.90;;;3.73;;
25549;SDS011;13444;50.562;7.262;2022-12-08T11:54:34;5.27;;;3.37;;
25549;SDS011;13444;50.562;7.262;2022-12-08T11:57:10;6.17;;;3.33;;
25549;SDS011;13444;50.562;7.262;2022-12-08T11:59:40;5.37;;;3.67;;
25549;SDS011;13444;50.562;7.262;2022-12-08T12:02:20;5.63;;;3.90;;
25549;SDS011;13444;50.562;7.262;2022-12-08T12:05:00;6.40;;;3.50;;
25549;SDS011;13444;50.562;7.262;2022-12-08T12:10:54;5.03;;;3.80;;
25549;SDS011;13444;50.562;7.262;2022-12-08T12:13:40;3.70;;;2.70;;
25549;SDS011;13444;50.562;7.262;2022-12-08T12:19:09;4.00;;;2.65;;
25549;SDS011;13444;50.562;7.262;2022-12-08T12:21:46;8.57;;;2.70;;
25549;SDS011;13444;50.562;7.262;2022-12-08T12:24:19;4.47;;;2.30;;
25549;SDS011;13444;50.562;7.262;2022-12-08T12:26:53;3.30;;;2.43;;
25549;SDS011;13444;50.562;7.262;2022-12-08T12:29:20;3.37;;;2.47;;
25549;SDS011;13444;50.562;7.262;2022-12-08T12:32:07;5.37;;;2.60;;
25549;SDS011;13444;50.562;7.262;2022-12-08T12:34:34;5.63;;;2.67;;
25549;SDS011;13444;50.562;7.262;2022-12-08T12:37:15;3.63;;;2.30;;
25549;SDS011;13444;50.562;7.262;2022-12-08T12:50:14;5.17;;;2.80;;
25549;SDS011;13444;50.562;7.262;2022-12-08T12:55:56;3.57;;;2.80;;
25549;SDS011;13444;50.562;7.262;2022-12-08T13:04:21;5.57;;;3.30;;
25549;SDS011;13444;50.562;7.262;2022-12-08T13:06:47;6.53;;;3.87;;
25549;SDS011;13444;50.562;7.262;2022-12-08T13:09:17;4.73;;;3.17;;
25549;SDS011;13444;50.562;7.262;2022-12-08T13:11:47;4.73;;;3.20;;
25549;SDS011;13444;50.562;7.262;2022-12-08T13:14:27;6.33;;;3.30;;
25549;SDS011;13444;50.562;7.262;2022-12-08T13:16:54;3.90;;;2.93;;
25549;SDS011;13444;50.562;7.262;2022-12-08T13:19:22;5.70;;;3.67;;
25549;SDS011;13444;50.562;7.262;2022-12-08T13:21:49;8.13;;;3.47;;
25549;SDS011;13444;50.562;7.262;2022-12-08T13:27:27;5.27;;;3.20;;
25549;SDS011;13444;50.562;7.262;2022-12-08T13:30:38;4.97;;;2.97;;
25549;SDS011;13444;50.562;7.262;2022-12-08T13:33:08;4.10;;;2.60;;
25549;SDS011;13444;50.562;7.262;2022-12-08T13:35:39;3.67;;;2.30;;
25549;SDS011;13444;50.562;7.262;2022-12-08T13:38:13;4.57;;;2.60;;
25549;SDS011;13444;50.562;7.262;2022-12-08T13:40:41;6.40;;;2.93;;
25549;SDS011;13444;50.562;7.262;2022-12-08T13:45:42;6.93;;;3.70;;
25549;SDS011;13444;50.562;7.262;2022-12-08T13:48:26;9.53;;;4.00;;
25549;SDS011;13444;50.562;7.262;2022-12-08T13:51:06;5.83;;;3.30;;
25549;SDS011;13444;50.562;7.262;2022-12-08T13:53:34;5.60;;;3.13;;
25549;SDS011;13444;50.562;7.262;2022-12-08T13:56:04;6.93;;;3.97;;
25549;SDS011;13444;50.562;7.262;2022-12-08T13:58:32;7.37;;;4.00;;
25549;SDS011;13444;50.562;7.262;2022-12-08T14:01:18;7.57;;;3.67;;
25549;SDS011;13444;50.562;7.262;2022-12-08T14:06:25;7.13;;;3.87;;
25549;SDS011;13444;50.562;7.262;2022-12-08T14:08:55;5.63;;;3.57;;
25549;SDS011;13444;50.562;7.262;2022-12-08T14:11:34;3.47;;;2.67;;
25549;SDS011;13444;50.562;7.262;2022-12-08T14:14:05;5.63;;;2.60;;
25549;SDS011;13444;50.562;7.262;2022-12-08T14:16:41;5.33;;;2.73;;
25549;SDS011;13444;50.562;7.262;2022-12-08T14:24:17;5.13;;;2.63;;
25549;SDS011;13444;50.562;7.262;2022-12-08T14:26:43;3.53;;;2.60;;
25549;SDS011;13444;50.562;7.262;2022-12-08T14:29:11;3.70;;;2.37;;
25549;SDS011;13444;50.562;7.262;2022-12-08T14:32:02;4.30;;;2.77;;
25549;SDS011;13444;50.562;7.262;2022-12-08T14:34:28;5.33;;;3.10;;
25549;SDS011;13444;50.562;7.262;2022-12-08T14:36:54;6.43;;;3.10;;
25549;SDS011;13444;50.562;7.262;2022-12-08T14:39:20;5.87;;;3.30;;
25549;SDS011;13444;50.562;7.262;2022-12-08T14:42:04;10.63;;;3.53;;
25549;SDS011;13444;50.562;7.262;2022-12-08T14:44:30;4.70;;;2.73;;
25549;SDS011;13444;50.562;7.262;2022-12-08T14:47:08;6.43;;;2.87;;
25549;SDS011;13444;50.562;7.262;2022-12-08T14:49:36;3.10;;;2.43;;
25549;SDS011;13444;50.562;7.262;2022-12-08T14:52:02;7.83;;;2.70;;
25549;SDS011;13444;50.562;7.262;2022-12-08T14:54:36;4.33;;;2.50;;
25549;SDS011;13444;50.562;7.262;2022-12-08T14:57:04;3.57;;;2.40;;
25549;SDS011;13444;50.562;7.262;2022-12-08T14:59:31;5.07;;;2.70;;
25549;SDS011;13444;50.562;7.262;2022-12-08T15:02:44;4.57;;;2.67;;
25549;SDS011;13444;50.562;7.262;2022-12-08T15:07:30;4.53;;;2.40;;
25549;SDS011;13444;50.562;7.262;2022-12-08T15:15:23;3.80;;;2.90;;
25549;SDS011;13444;50.562;7.262;2022-12-08T15:17:49;3.77;;;2.90;;
25549;SDS011;13444;50.562;7.262;2022-12-08T15:20:49;5.33;;;3.63;;
25549;SDS011;13444;50.562;7.262;2022-12-08T15:23:30;5.60;;;3.30;;
25549;SDS011;13444;50.562;7.262;2022-12-08T15:25:59;4.13;;;3.27;;
25549;SDS011;13444;50.562;7.262;2022-12-08T15:28:28;6.17;;;3.23;;
25549;SDS011;13444;50.562;7.262;2022-12-08T15:30:53;6.47;;;3.77;;
25549;SDS011;13444;50.562;7.262;2022-12-08T15:33:20;6.30;;;3.60;;
25549;SDS011;13444;50.562;7.262;2022-12-08T15:35:47;5.43;;;3.63;;
25549;SDS011;13444;50.562;7.262;2022-12-08T15:38:32;5.90;;;3.80;;
25549;SDS011;13444;50.562;7.262;2022-12-08T15:40:58;6.77;;;3.50;;
25549;SDS011;13444;50.562;7.262;2022-12-08T15:43:24;4.63;;;3.70;;
25549;SDS011;13444;50.562;7.262;2022-12-08T15:45:50;5.73;;;3.33;;
25549;SDS011;13444;50.562;7.262;2022-12-08T15:48:20;4.40;;;2.83;;
25549;SDS011;13444;50.562;7.262;2022-12-08T15:50:48;6.33;;;3.63;;
25549;SDS011;13444;50.562;7.262;2022-12-08T15:53:14;4.10;;;3.53;;
25549;SDS011;13444;50.562;7.262;2022-12-08T15:55:40;5.00;;;3.37;;
25549;SDS011;13444;50.562;7.262;2022-12-08T15:58:19;6.80;;;4.37;;
25549;SDS011;13444;50.562;7.262;2022-12-08T16:00:47;6.50;;;4.13;;
25549;SDS011;13444;50.562;7.262;2022-12-08T16:03:26;7.50;;;4.73;;
25549;SDS011;13444;50.562;7.262;2022-12-08T16:05:54;6.70;;;4.80;;
25549;SDS011;13444;50.562;7.262;2022-12-08T16:08:21;7.90;;;4.47;;
25549;SDS011;13444;50.562;7.262;2022-12-08T16:10:47;9.50;;;4.57;;
25549;SDS011;13444;50.562;7.262;2022-12-08T16:13:14;8.63;;;4.50;;
25549;SDS011;13444;50.562;7.262;2022-12-08T16:16:00;6.20;;;4.60;;
25549;SDS011;13444;50.562;7.262;2022-12-08T16:18:28;6.80;;;3.57;;
25549;SDS011;13444;50.562;7.262;2022-12-08T16:20:55;8.23;;;4.00;;
25549;SDS011;13444;50.562;7.262;2022-12-08T16:23:21;4.60;;;2.80;;
25549;SDS011;13444;50.562;7.262;2022-12-08T16:25:46;2.60;;;2.40;;
25549;SDS011;13444;50.562;7.262;2022-12-08T16:28:12;4.80;;;2.73;;
25549;SDS011;13444;50.562;7.262;2022-12-08T16:30:37;3.17;;;2.00;;